createdAt,value
2023-03-16T00:02:28.108Z,0.45
2023-03-16T00:04:59.740Z,0.49
2023-03-16T00:07:32.669Z,0.52
2023-03-16T00:10:04.639Z,0.52
2023-03-16T00:12:37.949Z,0.51
2023-03-16T00:15:11.141Z,0.48
2023-03-16T00:17:48.330Z,0.47
2023-03-16T00:20:20.495Z,0.42
2023-03-16T00:22:52.327Z,0.33
2023-03-16T00:25:24.256Z,0.26
2023-03-16T00:27:57.216Z,0.24
2023-03-16T00:30:29.447Z,0.20
2023-03-16T00:33:02.170Z,0.10
2023-03-16T00:35:34.684Z,0.08
2023-03-16T00:38:06.556Z,0.06
2023-03-16T00:40:38.407Z,-0.01
2023-03-16T00:43:11.741Z,-0.05
2023-03-16T00:45:44.752Z,0.00
2023-03-16T00:48:16.512Z,-0.10
2023-03-16T00:50:48.061Z,-0.08
2023-03-16T00:53:19.876Z,-0.11
2023-03-16T00:55:53.434Z,-0.05
2023-03-16T00:58:26.414Z,-0.12
2023-03-16T01:00:59.512Z,-0.13
2023-03-16T01:03:31.426Z,-0.20
2023-03-16T01:06:06.757Z,-0.19
2023-03-16T01:08:39.391Z,-0.16
2023-03-16T01:11:16.180Z,-0.11
2023-03-16T01:13:54.236Z,-0.16
2023-03-16T01:16:25.945Z,-0.22
2023-03-16T01:18:57.933Z,-0.22
2023-03-16T01:21:32.418Z,-0.30
2023-03-16T01:24:04.478Z,-0.34
2023-03-16T01:26:37.416Z,-0.33
2023-03-16T01:29:10.374Z,-0.32
2023-03-16T01:31:43.189Z,-0.33
2023-03-16T01:34:18.462Z,-0.32
2023-03-16T01:36:53.978Z,-0.37
2023-03-16T01:39:25.871Z,-0.37
2023-03-16T01:41:58.012Z,-0.40
2023-03-16T01:44:50.810Z,-0.40
2023-03-16T01:47:23.329Z,-0.41
2023-03-16T01:49:58.420Z,-0.40
2023-03-16T01:52:36.801Z,-0.38
2023-03-16T01:55:13.488Z,-0.39
2023-03-16T01:57:50.460Z,-0.38
2023-03-16T02:00:31.463Z,-0.43
2023-03-16T02:03:09.488Z,-0.48
2023-03-16T02:05:49.934Z,-0.46
2023-03-16T02:08:23.071Z,-0.50
2023-03-16T02:10:56.545Z,-0.44
2023-03-16T02:13:29.526Z,-0.44
2023-03-16T02:16:03.850Z,-0.41
2023-03-16T02:18:36.542Z,-0.43
2023-03-16T02:21:19.346Z,-0.45
2023-03-16T02:23:51.672Z,-0.51
2023-03-16T02:26:34.679Z,-0.52
2023-03-16T02:29:18.092Z,-0.56
2023-03-16T02:31:52.160Z,-0.59
2023-03-16T02:34:24.910Z,-0.67
2023-03-16T02:37:00.782Z,-0.71
2023-03-16T02:39:34.367Z,-0.75
2023-03-16T02:42:13.174Z,-0.76
2023-03-16T02:44:48.756Z,-0.79
2023-03-16T02:47:35.015Z,-0.77
2023-03-16T02:50:09.084Z,-0.81
2023-03-16T02:52:41.866Z,-0.77
2023-03-16T02:55:13.794Z,-0.77
2023-03-16T02:57:45.743Z,-0.74
2023-03-16T03:00:18.696Z,-0.73
2023-03-16T03:02:52.476Z,-0.78
2023-03-16T03:05:24.161Z,-0.82
2023-03-16T03:07:56.104Z,-0.84
2023-03-16T03:10:28.311Z,-0.82
2023-03-16T03:13:00.833Z,-0.81
2023-03-16T03:15:33.422Z,-0.82
2023-03-16T03:18:07.271Z,-0.85
2023-03-16T03:20:39.165Z,-0.92
2023-03-16T03:23:10.993Z,-0.93
2023-03-16T03:25:42.865Z,-0.93
2023-03-16T03:28:15.299Z,-0.90
2023-03-16T03:30:46.894Z,-0.93
2023-03-16T03:33:20.108Z,-0.92
2023-03-16T03:35:57.311Z,-0.91
2023-03-16T03:38:30.046Z,-0.95
2023-03-16T03:41:01.943Z,-0.96
2023-03-16T03:43:34.109Z,-0.95
2023-03-16T03:46:06.959Z,-0.97
2023-03-16T03:48:41.027Z,-0.98
2023-03-16T03:51:12.569Z,-1.00
2023-03-16T03:53:44.464Z,-1.02
2023-03-16T03:56:16.289Z,-1.01
2023-03-16T03:58:48.131Z,-1.01
2023-03-16T04:01:20.010Z,-1.02
2023-03-16T04:03:54.205Z,-1.06
2023-03-16T04:06:26.038Z,-1.06
2023-03-16T04:08:57.882Z,-1.08
2023-03-16T04:11:29.737Z,-1.07
2023-03-16T04:14:01.639Z,-1.07
2023-03-16T04:16:34.014Z,-1.02
2023-03-16T04:19:06.992Z,-1.03
2023-03-16T04:21:38.825Z,-1.04
2023-03-16T04:24:14.756Z,-1.05
2023-03-16T04:26:47.831Z,-1.08
2023-03-16T04:29:20.379Z,-1.08
2023-03-16T04:31:53.783Z,-1.09
2023-03-16T04:34:27.453Z,-1.13
2023-03-16T04:36:59.391Z,-1.13
2023-03-16T04:39:31.207Z,-1.15
2023-03-16T04:42:03.015Z,-1.15
2023-03-16T04:44:34.676Z,-1.14
2023-03-16T04:47:06.596Z,-1.16
2023-03-16T04:49:39.661Z,-1.17
2023-03-16T04:52:13.512Z,-1.15
2023-03-16T04:54:45.628Z,-1.13
2023-03-16T04:57:19.192Z,-1.14
2023-03-16T04:59:51.126Z,-1.19
2023-03-16T05:02:22.932Z,-1.20
2023-03-16T05:04:55.934Z,-1.20
2023-03-16T05:07:28.882Z,-1.20
2023-03-16T05:10:00.571Z,-1.19
2023-03-16T05:12:32.407Z,-1.23
2023-03-16T05:15:04.399Z,-1.21
2023-03-16T05:17:37.480Z,-1.24
2023-03-16T05:20:16.189Z,-1.25
2023-03-16T05:22:49.841Z,-1.22
2023-03-16T05:25:22.826Z,-1.21
2023-03-16T05:27:55.546Z,-1.19
2023-03-16T05:30:27.725Z,-1.17
2023-03-16T05:32:59.500Z,-1.15
2023-03-16T05:35:32.608Z,-1.09
2023-03-16T05:38:04.473Z,-1.09
2023-03-16T05:40:37.216Z,-1.08
2023-03-16T05:43:09.295Z,-1.07
2023-03-16T05:45:40.898Z,-1.07
2023-03-16T05:48:12.696Z,-1.05
2023-03-16T05:50:45.881Z,-1.03
2023-03-16T05:53:17.872Z,-1.00
2023-03-16T05:55:54.779Z,-0.98
2023-03-16T05:58:26.877Z,-0.98
2023-03-16T06:01:01.090Z,-0.96
2023-03-16T06:03:32.963Z,-0.95
2023-03-16T06:06:06.195Z,-0.92
2023-03-16T06:08:38.169Z,-0.91
2023-03-16T06:11:09.897Z,-0.90
2023-03-16T06:13:42.252Z,-0.87
2023-03-16T06:16:14.406Z,-0.83
2023-03-16T06:18:46.471Z,-0.80
2023-03-16T06:21:19.561Z,-0.78
2023-03-16T06:23:51.378Z,-0.74
2023-03-16T06:26:23.176Z,-0.71
2023-03-16T06:28:55.603Z,-0.67
2023-03-16T06:31:27.490Z,-0.61
2023-03-16T06:33:59.336Z,-0.57
2023-03-16T06:36:32.296Z,-0.54
2023-03-16T06:39:04.390Z,-0.53
2023-03-16T06:41:36.583Z,-0.52
2023-03-16T06:44:08.407Z,-0.48
2023-03-16T06:46:40.164Z,-0.46
2023-03-16T06:49:12.020Z,-0.41
2023-03-16T06:51:45.780Z,-0.38
2023-03-16T06:54:17.608Z,-0.37
2023-03-16T06:56:49.522Z,-0.34
2023-03-16T06:59:21.510Z,-0.33
2023-03-16T07:01:53.334Z,-0.30
2023-03-16T07:04:25.232Z,-0.28
2023-03-16T07:06:58.520Z,-0.25
2023-03-16T07:09:30.390Z,-0.22
2023-03-16T07:12:02.267Z,-0.18
2023-03-16T07:14:34.209Z,-0.15
2023-03-16T07:17:06.479Z,-0.07
2023-03-16T07:19:41.113Z,-0.03
2023-03-16T07:22:14.478Z,0.00
2023-03-16T07:24:46.818Z,0.02
2023-03-16T07:27:18.682Z,0.08
2023-03-16T07:29:50.764Z,0.14
2023-03-16T07:32:22.964Z,0.16
2023-03-16T07:34:54.553Z,0.19
2023-03-16T07:37:27.561Z,0.25
2023-03-16T07:39:59.382Z,0.31
2023-03-16T07:42:31.305Z,0.39
2023-03-16T07:45:03.174Z,0.46
2023-03-16T07:47:35.319Z,0.51
2023-03-16T07:50:09.244Z,0.54
2023-03-16T07:52:42.411Z,0.58
2023-03-16T07:55:16.241Z,0.66
2023-03-16T07:57:48.308Z,0.72
2023-03-16T08:00:23.953Z,0.80
2023-03-16T08:02:57.532Z,0.86
2023-03-16T08:05:29.123Z,0.95
2023-03-16T08:08:02.357Z,0.99
2023-03-16T08:10:34.211Z,1.12
2023-03-16T08:13:05.648Z,1.17
2023-03-16T08:15:37.923Z,1.25
2023-03-16T08:18:10.439Z,1.32
2023-03-16T08:20:44.496Z,1.46
2023-03-16T08:23:17.505Z,1.54
2023-03-16T08:25:52.385Z,1.67
2023-03-16T08:28:25.844Z,1.75
2023-03-16T08:30:58.850Z,1.80
2023-03-16T08:33:30.816Z,1.93
2023-03-16T08:36:02.848Z,2.02
2023-03-16T08:38:35.902Z,2.04
2023-03-16T08:41:07.811Z,2.08
2023-03-16T08:43:40.144Z,2.12
2023-03-16T08:46:13.305Z,2.19
2023-03-16T08:48:46.119Z,2.22
2023-03-16T08:51:18.860Z,2.29
2023-03-16T08:53:52.796Z,2.33
2023-03-16T08:56:24.383Z,2.41
2023-03-16T08:58:57.362Z,2.50
2023-03-16T09:01:31.886Z,2.71
2023-03-16T09:04:05.255Z,2.81
2023-03-16T09:06:39.192Z,2.92
2023-03-16T09:09:12.410Z,3.07
2023-03-16T09:11:47.010Z,3.17
2023-03-16T09:14:21.134Z,3.23
2023-03-16T09:16:53.149Z,3.28
2023-03-16T09:19:29.102Z,3.37
2023-03-16T09:22:03.976Z,3.46
2023-03-16T09:24:37.582Z,3.54
2023-03-16T09:27:12.044Z,3.69
2023-03-16T09:29:46.587Z,3.74
2023-03-16T09:32:19.046Z,3.93
2023-03-16T09:34:52.450Z,4.04
2023-03-16T09:37:27.903Z,4.20
2023-03-16T09:40:06.915Z,4.24
2023-03-16T09:43:03.641Z,4.34
2023-03-16T09:45:49.860Z,4.28
2023-03-16T09:48:24.548Z,4.43
2023-03-16T09:51:00.921Z,4.59
2023-03-16T09:53:37.621Z,4.63
2023-03-16T09:56:30.454Z,4.73
2023-03-16T09:59:54.927Z,4.90
2023-03-16T10:03:35.290Z,4.93
2023-03-16T10:06:22.457Z,5.07
2023-03-16T10:09:07.465Z,5.16
2023-03-16T10:11:48.099Z,5.21
2023-03-16T10:14:30.305Z,5.33
2023-03-16T10:17:11.198Z,5.39
2023-03-16T10:19:49.113Z,5.48
2023-03-16T10:22:28.167Z,5.57
2023-03-16T10:25:08.608Z,5.81
2023-03-16T10:27:45.224Z,5.91
2023-03-16T10:30:23.376Z,5.92
2023-03-16T10:33:01.932Z,6.01
2023-03-16T10:35:42.653Z,6.13
2023-03-16T10:38:28.790Z,6.17
2023-03-16T10:41:00.627Z,6.29
2023-03-16T10:43:36.945Z,6.30
2023-03-16T10:46:14.720Z,6.35
2023-03-16T10:48:53.333Z,6.36
2023-03-16T10:51:30.920Z,6.44
2023-03-16T10:54:15.807Z,6.54
2023-03-16T10:56:50.444Z,6.59
2023-03-16T10:59:34.320Z,6.69
2023-03-16T11:02:16.303Z,6.72
2023-03-16T11:04:49.477Z,6.79
2023-03-16T11:07:24.188Z,6.86
2023-03-16T11:09:58.626Z,6.97
2023-03-16T11:12:34.866Z,7.04
2023-03-16T11:15:25.193Z,7.11
2023-03-16T11:17:57.897Z,7.13
2023-03-16T11:20:34.575Z,7.16
2023-03-16T11:23:14.900Z,7.30
2023-03-16T11:25:54.745Z,7.40
2023-03-16T11:28:38.605Z,7.50
2023-03-16T11:31:24.329Z,7.55
2023-03-16T11:33:57.499Z,7.64
2023-03-16T11:36:43.240Z,7.75
2023-03-16T11:39:26.440Z,7.89
2023-03-16T11:42:14.363Z,7.99
2023-03-16T11:44:56.879Z,8.15
2023-03-16T11:48:04.927Z,8.13
2023-03-16T11:50:48.089Z,8.15
2023-03-16T11:53:33.122Z,8.19
2023-03-16T11:56:17.075Z,8.24
2023-03-16T11:59:02.338Z,8.22
2023-03-16T12:02:00.163Z,8.18
2023-03-16T12:04:52.632Z,8.18
2023-03-16T12:07:45.699Z,8.30
2023-03-16T12:10:27.991Z,8.41
2023-03-16T12:13:17.450Z,8.47
2023-03-16T12:15:55.410Z,8.59
2023-03-16T12:18:34.216Z,8.65
2023-03-16T12:21:13.143Z,8.69
2023-03-16T12:23:55.287Z,8.79
2023-03-16T12:26:38.568Z,8.88
2023-03-16T12:29:22.666Z,8.95
2023-03-16T12:32:04.856Z,9.08
2023-03-16T12:34:47.453Z,9.24
2023-03-16T12:37:31.051Z,9.35
2023-03-16T12:40:29.920Z,9.49
2023-03-16T12:43:19.006Z,9.51
2023-03-16T12:46:00.597Z,9.56
2023-03-16T12:48:38.738Z,9.57
2023-03-16T12:51:11.486Z,9.51
2023-03-16T12:53:55.447Z,9.44
2023-03-16T12:56:36.429Z,9.46
2023-03-16T12:59:16.412Z,9.54
2023-03-16T13:01:54.561Z,9.54
2023-03-16T13:04:36.271Z,9.52
2023-03-16T13:07:17.357Z,9.47
2023-03-16T13:09:57.217Z,9.42
2023-03-16T13:12:32.900Z,9.36
2023-03-16T13:15:19.967Z,9.27
2023-03-16T13:18:05.238Z,9.27
2023-03-16T13:20:50.782Z,9.29
2023-03-16T13:23:27.445Z,9.45
2023-03-16T13:26:15.282Z,9.51
2023-03-16T13:28:52.112Z,9.59
2023-03-16T13:31:29.876Z,9.47
2023-03-16T13:34:03.802Z,9.34
2023-03-16T13:36:38.069Z,9.34
2023-03-16T13:39:19.735Z,9.47
2023-03-16T13:42:10.680Z,9.49
2023-03-16T13:44:45.666Z,9.48
2023-03-16T13:47:20.480Z,9.52
2023-03-16T13:49:56.476Z,9.60
2023-03-16T13:52:34.165Z,9.66
2023-03-16T13:55:15.310Z,9.80
2023-03-16T13:57:51.418Z,9.90
2023-03-16T14:00:29.010Z,9.92
2023-03-16T14:03:09.516Z,9.95
2023-03-16T14:05:41.536Z,9.90
2023-03-16T14:08:23.304Z,9.86
2023-03-16T14:11:00.614Z,9.85
2023-03-16T14:13:39.419Z,9.85
2023-03-16T14:16:17.765Z,9.72
2023-03-16T14:18:53.726Z,9.59
2023-03-16T14:21:30.298Z,9.49
2023-03-16T14:24:05.401Z,9.43
2023-03-16T14:26:46.457Z,9.44
2023-03-16T14:29:26.718Z,9.42
2023-03-16T14:32:00.070Z,9.42
2023-03-16T14:34:39.570Z,9.37
2023-03-16T14:37:14.708Z,9.35
2023-03-16T14:39:47.830Z,9.31
2023-03-16T14:42:27.474Z,9.24
2023-03-16T14:45:04.738Z,9.22
2023-03-16T14:47:43.238Z,9.16
2023-03-16T14:50:19.693Z,9.21
2023-03-16T14:52:52.664Z,9.17
2023-03-16T14:55:25.808Z,9.09
2023-03-16T14:57:57.562Z,9.04
2023-03-16T15:00:37.158Z,9.07
2023-03-16T15:03:18.428Z,9.04
2023-03-16T15:05:53.106Z,9.05
2023-03-16T15:08:32.106Z,9.00
2023-03-16T15:11:07.848Z,8.96
2023-03-16T15:13:59.512Z,8.98
2023-03-16T15:16:34.352Z,9.00
2023-03-16T15:19:06.296Z,9.00
2023-03-16T15:21:38.082Z,8.96
2023-03-16T15:24:12.599Z,8.92
2023-03-16T15:26:44.203Z,8.87
2023-03-16T15:29:19.695Z,8.90
2023-03-16T15:31:54.496Z,8.84
2023-03-16T15:34:27.355Z,8.86
2023-03-16T15:36:58.910Z,8.89
2023-03-16T15:39:30.771Z,8.86
2023-03-16T15:42:02.727Z,8.82
2023-03-16T15:44:34.538Z,8.83
2023-03-16T15:47:07.672Z,8.80
2023-03-16T15:49:47.276Z,8.78
2023-03-16T15:52:32.899Z,8.79
2023-03-16T15:55:08.298Z,8.79
2023-03-16T15:57:41.221Z,8.79
2023-03-16T16:00:28.402Z,8.78
2023-03-16T16:03:03.636Z,8.78
2023-03-16T16:05:36.563Z,8.69
2023-03-16T16:08:09.434Z,8.70
2023-03-16T16:10:44.656Z,8.63
2023-03-16T16:13:24.832Z,8.63
2023-03-16T16:15:59.001Z,8.57
2023-03-16T16:18:37.330Z,8.58
2023-03-16T16:21:19.142Z,8.56
2023-03-16T16:23:51.707Z,8.52
2023-03-16T16:26:48.316Z,8.48
2023-03-16T16:29:27.072Z,8.46
2023-03-16T16:31:59.099Z,8.41
2023-03-16T16:34:32.113Z,8.36
2023-03-16T16:37:04.178Z,8.36
2023-03-16T16:39:35.848Z,8.35
2023-03-16T16:42:13.076Z,8.33
2023-03-16T16:44:44.917Z,8.31
2023-03-16T16:47:23.483Z,8.27
2023-03-16T16:49:57.647Z,8.27
2023-03-16T16:52:29.522Z,8.22
2023-03-16T16:55:01.543Z,8.19
2023-03-16T16:57:33.296Z,8.17
2023-03-16T17:00:07.256Z,8.07
2023-03-16T17:02:48.423Z,8.06
2023-03-16T17:05:27.094Z,8.06
2023-03-16T17:08:03.984Z,7.98
2023-03-16T17:10:37.705Z,7.96
2023-03-16T17:13:15.707Z,7.88
2023-03-16T17:15:47.887Z,7.89
2023-03-16T17:18:20.572Z,7.85
2023-03-16T17:20:53.770Z,7.82
2023-03-16T17:23:34.411Z,7.82
2023-03-16T17:26:14.753Z,7.80
2023-03-16T17:28:52.942Z,7.78
2023-03-16T17:31:35.163Z,7.74
2023-03-16T17:34:16.727Z,7.70
2023-03-16T17:36:51.126Z,7.70
2023-03-16T17:39:27.040Z,7.68
2023-03-16T17:42:02.911Z,7.57
2023-03-16T17:44:39.053Z,7.60
2023-03-16T17:47:21.381Z,7.51
2023-03-16T17:49:53.591Z,7.55
2023-03-16T17:52:29.753Z,7.47
2023-03-16T17:55:01.294Z,7.43
2023-03-16T17:57:36.931Z,7.40
2023-03-16T18:00:22.480Z,7.41
2023-03-16T18:02:57.320Z,7.37
2023-03-16T18:05:32.584Z,7.35
2023-03-16T18:08:14.971Z,7.33
2023-03-16T18:10:49.068Z,7.33
2023-03-16T18:13:29.053Z,7.28
2023-03-16T18:16:02.698Z,7.24
2023-03-16T18:18:39.621Z,7.21
2023-03-16T18:21:17.847Z,7.20
2023-03-16T18:23:53.633Z,7.17
2023-03-16T18:26:27.441Z,7.20
2023-03-16T18:28:59.308Z,7.14
2023-03-16T18:31:32.525Z,7.07
2023-03-16T18:34:07.149Z,7.01
2023-03-16T18:36:41.179Z,7.00
2023-03-16T18:39:22.897Z,7.00
2023-03-16T18:41:54.747Z,6.98
2023-03-16T18:44:30.383Z,6.94
2023-03-16T18:47:05.902Z,6.91
2023-03-16T18:49:40.291Z,6.89
2023-03-16T18:52:22.042Z,6.88
2023-03-16T18:54:55.624Z,6.84
2023-03-16T18:57:29.541Z,6.78
2023-03-16T19:00:01.399Z,6.80
2023-03-16T19:02:39.349Z,6.80
2023-03-16T19:05:17.527Z,6.74
2023-03-16T19:07:53.051Z,6.75
2023-03-16T19:10:35.416Z,6.73
2023-03-16T19:13:14.459Z,6.68
2023-03-16T19:15:46.729Z,6.65
2023-03-16T19:18:19.645Z,6.61
2023-03-16T19:20:54.738Z,6.61
2023-03-16T19:23:31.440Z,6.60
2023-03-16T19:26:04.594Z,6.55
2023-03-16T19:28:40.838Z,6.52
2023-03-16T19:31:22.262Z,6.50
2023-03-16T19:33:54.026Z,6.47
2023-03-16T19:36:30.237Z,6.46
2023-03-16T19:39:04.054Z,6.44
2023-03-16T19:41:40.370Z,6.37
2023-03-16T19:44:18.524Z,6.34
2023-03-16T19:46:52.216Z,6.32
2023-03-16T19:49:27.016Z,6.31
2023-03-16T19:52:00.087Z,6.26
2023-03-16T19:54:35.052Z,6.25
2023-03-16T19:57:15.311Z,6.19
2023-03-16T19:59:51.365Z,6.22
2023-03-16T20:02:37.121Z,6.16
2023-03-16T20:05:16.051Z,6.17
2023-03-16T20:07:47.919Z,6.12
2023-03-16T20:10:28.949Z,6.09
2023-03-16T20:13:05.653Z,6.12
2023-03-16T20:15:38.578Z,6.06
2023-03-16T20:18:14.406Z,6.08
2023-03-16T20:20:47.741Z,6.06
2023-03-16T20:23:24.366Z,6.03
2023-03-16T20:26:01.394Z,5.99
2023-03-16T20:28:39.970Z,5.93
2023-03-16T20:31:18.705Z,5.88
2023-03-16T20:33:52.952Z,5.90
2023-03-16T20:36:26.569Z,5.91
2023-03-16T20:38:58.201Z,5.87
2023-03-16T20:41:32.884Z,5.90
2023-03-16T20:44:06.377Z,5.93
2023-03-16T20:46:41.087Z,5.91
2023-03-16T20:49:32.302Z,5.92
2023-03-16T20:52:03.997Z,5.89
2023-03-16T20:54:35.841Z,5.89
2023-03-16T20:57:17.245Z,5.88
2023-03-16T20:59:51.589Z,5.88
2023-03-16T21:02:34.004Z,5.88
2023-03-16T21:05:08.915Z,5.83
2023-03-16T21:07:40.780Z,5.87
2023-03-16T21:10:15.878Z,5.84
2023-03-16T21:12:53.026Z,5.86
2023-03-16T21:15:30.747Z,5.83
2023-03-16T21:18:06.430Z,5.80
2023-03-16T21:20:39.182Z,5.74
2023-03-16T21:23:17.031Z,5.79
2023-03-16T21:25:56.634Z,5.77
2023-03-16T21:28:33.032Z,5.77
2023-03-16T21:31:08.380Z,5.77
2023-03-16T21:33:43.168Z,5.71
2023-03-16T21:36:21.094Z,5.67
2023-03-16T21:38:56.371Z,5.63
2023-03-16T21:41:28.207Z,5.66
2023-03-16T21:44:00.133Z,5.65
2023-03-16T21:46:32.540Z,5.62
2023-03-16T21:49:04.901Z,5.60
2023-03-16T21:51:36.891Z,5.59
2023-03-16T21:54:15.418Z,5.59
2023-03-16T21:56:47.684Z,5.59
2023-03-16T21:59:23.416Z,5.59
2023-03-16T22:02:02.067Z,5.60
2023-03-16T22:04:36.600Z,5.62
2023-03-16T22:07:11.443Z,5.61
2023-03-16T22:09:43.396Z,5.63
2023-03-16T22:12:16.586Z,5.63
2023-03-16T22:14:49.838Z,5.60
2023-03-16T22:17:27.427Z,5.58
2023-03-16T22:20:00.307Z,5.56
2023-03-16T22:22:35.237Z,5.53
2023-03-16T22:25:14.513Z,5.53
2023-03-16T22:27:48.724Z,5.51
2023-03-16T22:30:20.683Z,5.48
2023-03-16T22:32:58.665Z,5.50
2023-03-16T22:35:39.016Z,5.50
2023-03-16T22:38:16.458Z,5.50
2023-03-16T22:40:48.493Z,5.47
2023-03-16T22:43:29.496Z,5.50
2023-03-16T22:46:01.438Z,5.46
2023-03-16T22:48:35.577Z,5.48
2023-03-16T22:51:08.327Z,5.46
2023-03-16T22:53:45.888Z,5.47
2023-03-16T22:56:17.810Z,5.47
2023-03-16T22:58:54.823Z,5.45
2023-03-16T23:01:32.589Z,5.42
2023-03-16T23:04:13.744Z,5.45
2023-03-16T23:06:50.838Z,5.41
2023-03-16T23:09:23.441Z,5.44
2023-03-16T23:11:59.363Z,5.42
2023-03-16T23:14:38.064Z,5.41
2023-03-16T23:17:13.433Z,5.38
2023-03-16T23:19:47.827Z,5.36
2023-03-16T23:22:19.778Z,5.35
2023-03-16T23:24:51.586Z,5.37
2023-03-16T23:27:24.704Z,5.39
2023-03-16T23:29:56.293Z,5.41
2023-03-16T23:32:28.363Z,5.40
2023-03-16T23:35:02.113Z,5.43
2023-03-16T23:37:34.019Z,5.44
2023-03-16T23:40:05.922Z,5.46
2023-03-16T23:42:38.335Z,5.44
2023-03-16T23:45:20.843Z,5.45
2023-03-16T23:47:55.364Z,5.48
2023-03-16T23:50:34.095Z,5.47
2023-03-16T23:53:11.685Z,5.45
2023-03-16T23:55:43.883Z,5.45
2023-03-16T23:58:16.958Z,5.49
